Time;durP1;ratioP1;P1;durP2;ratioP2;P2;SDS_P1;SDS_P2;PMS_P1;PMS_P2;Temp;Humidity;BMP_temperature;BMP_pressure;BME280_temperature;BME280_humidity;BME280_pressure;Samples;Min_cycle;Max_cycle;Signal;HPM_P1;HPM_P2
2021/12/08 00:00:15;;;;;;;8.73;4.15;;;;;;;;;;5053524;28;20052;-80
2021/12/08 00:02:42;;;;;;;8.95;4.53;;;;;;;;;;5053594;28;20049;-79
2021/12/08 00:05:08;;;;;;;7.03;4.32;;;;;;;;;;5051730;28;20048;-80
2021/12/08 00:07:35;;;;;;;6.13;3.70;;;;;;;;;;5051916;28;20349;-79
2021/12/08 00:10:15;;;;;;;7.60;4.57;;;;;;;;;;5021735;28;20049;-79
2021/12/08 00:13:04;;;;;;;7.43;3.92;;;;;;;;;;5032571;28;20128;-81
2021/12/08 00:15:31;;;;;;;7.55;4.28;;;;;;;;;;5016807;28;20046;-81
2021/12/08 00:17:57;;;;;;;10.43;4.28;;;;;;;;;;5032591;28;20052;-79
2021/12/08 00:20:27;;;;;;;14.32;4.43;;;;;;;;;;5015897;28;20112;-78
2021/12/08 00:22:53;;;;;;;10.05;4.95;;;;;;;;;;5015751;28;20433;-79
2021/12/08 00:25:19;;;;;;;8.93;4.75;;;;;;;;;;5032916;28;20072;-80
2021/12/08 00:27:45;;;;;;;6.15;4.10;;;;;;;;;;5015847;28;20048;-80
2021/12/08 00:30:11;;;;;;;9.32;4.70;;;;;;;;;;5032459;28;20046;-81
2021/12/08 00:32:37;;;;;;;9.95;5.18;;;;;;;;;;5015944;28;20041;-81
2021/12/08 00:35:04;;;;;;;12.23;5.03;;;;;;;;;;5035090;28;20136;-82
2021/12/08 00:37:30;;;;;;;8.93;4.55;;;;;;;;;;5031146;28;20049;-83
2021/12/08 00:40:04;;;;;;;8.85;4.65;;;;;;;;;;5035519;28;20059;-82
2021/12/08 00:42:38;;;;;;;10.98;5.10;;;;;;;;;;5036001;28;20049;-83
2021/12/08 01:05:48;;;;;;;9.60;5.15;;;;;;;;;;5839797;23;20024;-83
2021/12/08 01:08:21;;;;;;;7.72;4.90;;;;;;;;;;4845220;29;20148;-81
2021/12/08 01:10:49;;;;;;;9.73;5.55;;;;;;;;;;4847720;29;20061;-79
2021/12/08 01:13:15;;;;;;;6.63;4.95;;;;;;;;;;4862678;29;20445;-80
2021/12/08 01:15:44;;;;;;;7.93;5.00;;;;;;;;;;4832496;29;20492;-82
2021/12/08 01:18:10;;;;;;;10.45;5.55;;;;;;;;;;4832232;29;20053;-82
2021/12/08 01:20:36;;;;;;;9.02;5.72;;;;;;;;;;4834519;29;20506;-79
2021/12/08 01:23:03;;;;;;;9.38;5.32;;;;;;;;;;4848001;29;20055;-81
2021/12/08 01:25:29;;;;;;;7.88;5.15;;;;;;;;;;4856279;29;20164;-80
2021/12/08 01:27:55;;;;;;;10.63;5.70;;;;;;;;;;4862667;29;20370;-78
2021/12/08 01:30:22;;;;;;;9.27;5.35;;;;;;;;;;4855164;29;20129;-78
2021/12/08 01:32:48;;;;;;;9.27;6.00;;;;;;;;;;4832302;29;20115;-78
2021/12/08 01:35:14;;;;;;;11.15;6.05;;;;;;;;;;4845360;29;20041;-81
2021/12/08 01:37:41;;;;;;;12.10;6.28;;;;;;;;;;4864917;29;20393;-84
2021/12/08 02:06:55;;;;;;;7.15;6.00;;;;;;;;;;4013190;24;20069;-84
2021/12/08 02:12:46;;;;;;;12.80;7.32;;;;;;;;;;4827481;29;20045;-83
2021/12/08 02:15:33;;;;;;;9.85;6.78;;;;;;;;;;4829017;29;20045;-81
2021/12/08 02:17:59;;;;;;;8.60;6.75;;;;;;;;;;4812197;29;20050;-83
2021/12/08 02:20:27;;;;;;;10.73;7.15;;;;;;;;;;4813506;29;20046;-83
2021/12/08 02:22:56;;;;;;;10.10;6.80;;;;;;;;;;4811287;29;20042;-83
2021/12/08 02:25:23;;;;;;;14.48;7.32;;;;;;;;;;4825196;29;20057;-82
2021/12/08 02:27:54;;;;;;;10.50;6.63;;;;;;;;;;4816084;29;20046;-82
2021/12/08 02:30:29;;;;;;;10.80;8.23;;;;;;;;;;4812770;29;20126;-81
2021/12/08 02:49:09;;;;;;;8.68;7.13;;;;;;;;;;4808602;29;20103;-82
2021/12/08 02:51:36;;;;;;;9.00;7.28;;;;;;;;;;4808483;29;20058;-80
2021/12/08 02:54:03;;;;;;;8.77;7.55;;;;;;;;;;4808429;29;20039;-81
2021/12/08 02:56:30;;;;;;;10.70;8.02;;;;;;;;;;4808203;29;20106;-83
2021/12/08 02:58:57;;;;;;;10.18;8.10;;;;;;;;;;4808272;29;20164;-83
2021/12/08 03:01:23;;;;;;;12.05;8.35;;;;;;;;;;4821067;29;20566;-80
2021/12/08 03:03:49;;;;;;;13.23;8.57;;;;;;;;;;4812174;29;20104;-81
2021/12/08 03:06:15;;;;;;;9.35;7.97;;;;;;;;;;4812762;29;20137;-82
2021/12/08 03:08:42;;;;;;;9.70;8.70;;;;;;;;;;4811531;29;20129;-81
2021/12/08 03:11:08;;;;;;;10.93;8.40;;;;;;;;;;4812411;29;20038;-81
2021/12/08 03:13:41;;;;;;;11.00;8.60;;;;;;;;;;4811558;29;20489;-81
2021/12/08 03:16:08;;;;;;;11.82;8.68;;;;;;;;;;4812442;29;20041;-82
2021/12/08 03:18:36;;;;;;;14.52;9.38;;;;;;;;;;4812092;29;20052;-80
2021/12/08 03:21:04;;;;;;;11.35;9.40;;;;;;;;;;4812423;29;20038;-82
2021/12/08 03:23:37;;;;;;;10.80;9.02;;;;;;;;;;4808862;29;20046;-80
2021/12/08 03:26:06;;;;;;;12.82;9.68;;;;;;;;;;4808879;29;20053;-81
2021/12/08 03:28:37;;;;;;;11.93;9.60;;;;;;;;;;4809058;29;20050;-83
2021/12/08 03:31:13;;;;;;;14.07;10.40;;;;;;;;;;4821881;29;20038;-82
2021/12/08 03:33:39;;;;;;;12.53;10.00;;;;;;;;;;4809063;29;20038;-81
2021/12/08 03:36:05;;;;;;;12.60;9.60;;;;;;;;;;4809103;29;20361;-83
2021/12/08 03:38:31;;;;;;;14.90;10.27;;;;;;;;;;4820176;29;20092;-81
2021/12/08 03:40:59;;;;;;;15.77;10.52;;;;;;;;;;4812047;29;20050;-80
2021/12/08 03:43:25;;;;;;;15.35;11.25;;;;;;;;;;4810807;29;20057;-82
2021/12/08 03:45:52;;;;;;;14.82;10.55;;;;;;;;;;4812002;29;20046;-80
2021/12/08 03:48:23;;;;;;;13.27;10.85;;;;;;;;;;4811667;29;20050;-82
2021/12/08 03:50:49;;;;;;;12.25;10.35;;;;;;;;;;4811784;29;20487;-80
2021/12/08 03:53:16;;;;;;;15.23;11.10;;;;;;;;;;4812076;29;20100;-80
2021/12/08 03:55:46;;;;;;;14.82;11.77;;;;;;;;;;4812357;29;20157;-80
2021/12/08 03:58:12;;;;;;;13.40;11.43;;;;;;;;;;4811995;29;20092;-81
2021/12/08 04:00:39;;;;;;;14.65;10.82;;;;;;;;;;4811877;29;20053;-80
2021/12/08 04:03:07;;;;;;;13.93;12.10;;;;;;;;;;4811395;29;20042;-83
2021/12/08 04:05:53;;;;;;;15.88;11.93;;;;;;;;;;4811806;29;20140;-82
2021/12/08 04:08:28;;;;;;;15.77;10.98;;;;;;;;;;4811669;29;20061;-80
2021/12/08 04:10:54;;;;;;;14.93;11.93;;;;;;;;;;4812270;29;20102;-83
2021/12/08 04:13:23;;;;;;;14.05;10.57;;;;;;;;;;4811378;29;20045;-82
2021/12/08 04:15:50;;;;;;;15.27;11.25;;;;;;;;;;4826734;29;20042;-81
2021/12/08 04:18:16;;;;;;;13.52;11.23;;;;;;;;;;4811348;29;20050;-81
2021/12/08 04:20:44;;;;;;;14.82;11.77;;;;;;;;;;4814458;29;20054;-82
2021/12/08 04:23:12;;;;;;;15.40;11.32;;;;;;;;;;4815534;29;20061;-80
2021/12/08 04:25:39;;;;;;;16.50;11.70;;;;;;;;;;4815180;29;20050;-81
2021/12/08 04:28:12;;;;;;;18.75;11.95;;;;;;;;;;4811728;29;20042;-82
2021/12/08 04:30:41;;;;;;;16.40;12.00;;;;;;;;;;4821360;29;20060;-81
2021/12/08 04:33:08;;;;;;;16.08;12.57;;;;;;;;;;4814641;29;20752;-79
2021/12/08 04:35:34;;;;;;;14.52;11.32;;;;;;;;;;4829597;29;20105;-80
2021/12/08 04:38:04;;;;;;;15.95;11.95;;;;;;;;;;4815010;29;20057;-80
2021/12/08 04:43:41;;;;;;;15.88;12.23;;;;;;;;;;4812193;29;20085;-84
2021/12/08 04:46:29;;;;;;;14.95;11.82;;;;;;;;;;4812660;29;20082;-80
2021/12/08 04:49:33;;;;;;;17.23;12.02;;;;;;;;;;4829795;29;20056;-79
2021/12/08 04:52:11;;;;;;;17.38;11.65;;;;;;;;;;4811646;29;20531;-82
2021/12/08 05:00:30;;;;;;;16.00;12.07;;;;;;;;;;4822942;29;20065;-80
2021/12/08 05:08:43;;;;;;;15.13;11.63;;;;;;;;;;4829302;29;20046;-80
2021/12/08 05:11:29;;;;;;;19.05;11.65;;;;;;;;;;4814495;29;20132;-80
2021/12/08 05:13:57;;;;;;;16.98;12.10;;;;;;;;;;4824336;29;20107;-82
2021/12/08 05:16:25;;;;;;;14.80;12.40;;;;;;;;;;4796099;29;20053;-81
2021/12/08 05:18:52;;;;;;;16.33;11.70;;;;;;;;;;4795724;29;20049;-80
2021/12/08 05:21:21;;;;;;;16.13;12.27;;;;;;;;;;4796637;29;20050;-79
2021/12/08 05:23:59;;;;;;;15.38;11.38;;;;;;;;;;4795941;29;20085;-78
2021/12/08 05:26:33;;;;;;;15.82;11.27;;;;;;;;;;4796076;29;20356;-79
2021/12/08 05:29:03;;;;;;;15.95;11.38;;;;;;;;;;4806703;29;20527;-79
2021/12/08 05:31:30;;;;;;;13.32;10.63;;;;;;;;;;4813589;29;20052;-80
2021/12/08 05:33:57;;;;;;;13.48;10.02;;;;;;;;;;4829002;29;20085;-81
2021/12/08 05:36:23;;;;;;;14.95;10.75;;;;;;;;;;4829421;29;20042;-81
2021/12/08 05:38:50;;;;;;;13.68;11.13;;;;;;;;;;4813792;29;20046;-80
2021/12/08 05:41:24;;;;;;;12.27;9.43;;;;;;;;;;4814127;29;20057;-81
2021/12/08 05:43:51;;;;;;;14.88;10.80;;;;;;;;;;4825170;29;20198;-80
2021/12/08 05:46:17;;;;;;;12.55;9.85;;;;;;;;;;4828656;29;20125;-80
2021/12/08 05:48:46;;;;;;;12.70;9.25;;;;;;;;;;4813604;29;20123;-80
2021/12/08 05:51:19;;;;;;;13.27;9.88;;;;;;;;;;4813314;29;20133;-81
2021/12/08 05:53:47;;;;;;;14.25;9.73;;;;;;;;;;4828913;29;20075;-82
2021/12/08 05:56:13;;;;;;;14.30;10.20;;;;;;;;;;4813635;29;20042;-80
2021/12/08 05:58:40;;;;;;;13.82;9.82;;;;;;;;;;4828113;29;20049;-80
2021/12/08 06:01:12;;;;;;;15.38;10.32;;;;;;;;;;4828522;29;20054;-81
2021/12/08 06:03:39;;;;;;;14.48;10.30;;;;;;;;;;4827656;29;20053;-81
2021/12/08 06:06:05;;;;;;;14.23;10.93;;;;;;;;;;4813058;29;20072;-79
2021/12/08 06:08:32;;;;;;;14.35;10.52;;;;;;;;;;4828361;29;20054;-79
2021/12/08 06:10:59;;;;;;;14.25;10.32;;;;;;;;;;4813109;29;20113;-79
2021/12/08 06:13:25;;;;;;;15.55;11.27;;;;;;;;;;4813103;29;20050;-81
2021/12/08 06:15:51;;;;;;;20.00;11.13;;;;;;;;;;4812926;29;20046;-79
2021/12/08 06:18:21;;;;;;;11.65;10.15;;;;;;;;;;4813220;29;20053;-79
2021/12/08 06:20:47;;;;;;;16.55;10.13;;;;;;;;;;4813218;29;20424;-79
2021/12/08 06:23:13;;;;;;;14.75;10.55;;;;;;;;;;4813008;29;20493;-80
2021/12/08 06:25:40;;;;;;;15.50;10.77;;;;;;;;;;4812936;29;20050;-82
2021/12/08 06:28:07;;;;;;;16.83;9.73;;;;;;;;;;4827560;29;20383;-80
2021/12/08 06:30:35;;;;;;;14.40;9.98;;;;;;;;;;4828296;29;20082;-80
2021/12/08 06:33:01;;;;;;;14.13;9.93;;;;;;;;;;4809347;29;20043;-82
2021/12/08 06:35:35;;;;;;;14.52;10.45;;;;;;;;;;4809977;29;20049;-79
2021/12/08 06:38:01;;;;;;;15.00;9.93;;;;;;;;;;4809695;29;20050;-81
2021/12/08 06:40:31;;;;;;;13.27;9.50;;;;;;;;;;4809776;29;20065;-79
2021/12/08 06:42:58;;;;;;;15.70;9.35;;;;;;;;;;4819309;29;20115;-81
2021/12/08 06:45:27;;;;;;;18.77;9.70;;;;;;;;;;4828096;29;20041;-79
2021/12/08 06:47:54;;;;;;;15.30;9.32;;;;;;;;;;4812825;29;20490;-79
2021/12/08 06:50:25;;;;;;;15.75;9.18;;;;;;;;;;4828008;29;20049;-80
2021/12/08 06:52:52;;;;;;;14.27;8.35;;;;;;;;;;4812396;29;20069;-80
2021/12/08 06:55:19;;;;;;;14.18;9.32;;;;;;;;;;4813045;29;20106;-79
2021/12/08 06:57:58;;;;;;;13.15;8.50;;;;;;;;;;4827855;29;20046;-83
2021/12/08 07:00:56;;;;;;;18.67;9.30;;;;;;;;;;4827337;29;20056;-80
2021/12/08 07:03:34;;;;;;;11.10;7.85;;;;;;;;;;4811698;29;20443;-80
2021/12/08 07:06:12;;;;;;;14.10;8.18;;;;;;;;;;4812391;29;20090;-81
2021/12/08 07:08:41;;;;;;;14.32;9.38;;;;;;;;;;4825239;29;20105;-81
2021/12/08 07:11:08;;;;;;;11.70;8.40;;;;;;;;;;4826224;29;20050;-81
2021/12/08 07:13:37;;;;;;;12.15;8.02;;;;;;;;;;4812154;29;20049;-83
2021/12/08 07:16:12;;;;;;;13.07;7.90;;;;;;;;;;4812071;29;20050;-81
2021/12/08 07:18:53;;;;;;;11.48;7.50;;;;;;;;;;4811789;29;20501;-81
2021/12/08 07:21:20;;;;;;;11.65;7.13;;;;;;;;;;4812596;29;20096;-80
2021/12/08 07:23:49;;;;;;;10.65;6.93;;;;;;;;;;4824278;29;20053;-80
2021/12/08 07:26:27;;;;;;;12.35;7.15;;;;;;;;;;4812117;29;20086;-80
2021/12/08 07:28:54;;;;;;;13.32;7.18;;;;;;;;;;4814036;29;20072;-79
2021/12/08 07:31:26;;;;;;;13.32;7.15;;;;;;;;;;4826888;29;20212;-79
2021/12/08 07:33:53;;;;;;;10.52;6.63;;;;;;;;;;4823546;29;20050;-80
2021/12/08 07:36:20;;;;;;;13.52;6.53;;;;;;;;;;4827071;29;20057;-80
2021/12/08 07:38:48;;;;;;;9.48;6.68;;;;;;;;;;4811841;29;20045;-80
2021/12/08 07:41:22;;;;;;;11.52;6.18;;;;;;;;;;4811778;29;20178;-79
2021/12/08 07:43:50;;;;;;;12.45;7.00;;;;;;;;;;4812984;29;20368;-81
2021/12/08 07:46:19;;;;;;;9.45;5.75;;;;;;;;;;4827136;29;20123;-79
2021/12/08 07:48:48;;;;;;;13.45;6.68;;;;;;;;;;4826723;29;20058;-80
2021/12/08 07:51:43;;;;;;;10.30;6.57;;;;;;;;;;4811592;29;20038;-80
2021/12/08 07:54:10;;;;;;;9.82;5.88;;;;;;;;;;4806857;29;20064;-80
2021/12/08 07:56:37;;;;;;;9.10;6.03;;;;;;;;;;4854833;29;20058;-81
2021/12/08 07:59:05;;;;;;;11.23;6.00;;;;;;;;;;4812458;29;20057;-79
2021/12/08 08:01:35;;;;;;;12.07;6.72;;;;;;;;;;4813209;29;20054;-82
2021/12/08 08:04:02;;;;;;;10.80;6.50;;;;;;;;;;4812520;29;20482;-81
2021/12/08 08:06:34;;;;;;;10.07;6.07;;;;;;;;;;4811985;29;20077;-79
2021/12/08 08:09:01;;;;;;;8.50;6.07;;;;;;;;;;4818071;29;20475;-80
2021/12/08 08:11:30;;;;;;;9.38;5.72;;;;;;;;;;4807483;29;20086;-80
2021/12/08 08:13:57;;;;;;;8.63;5.00;;;;;;;;;;4812304;29;20046;-81
2021/12/08 08:16:25;;;;;;;8.32;5.10;;;;;;;;;;4811897;29;20372;-82
2021/12/08 08:18:57;;;;;;;11.15;5.90;;;;;;;;;;4827802;29;20042;-78
2021/12/08 08:21:24;;;;;;;9.50;5.68;;;;;;;;;;4830297;29;20125;-79
2021/12/08 08:23:51;;;;;;;10.88;5.97;;;;;;;;;;4829287;29;20054;-79
2021/12/08 08:26:17;;;;;;;9.95;5.13;;;;;;;;;;4828703;29;20046;-78
2021/12/08 08:28:46;;;;;;;7.88;5.18;;;;;;;;;;4829821;29;20057;-80
2021/12/08 08:31:25;;;;;;;12.40;5.25;;;;;;;;;;4829940;29;20053;-80
2021/12/08 08:33:52;;;;;;;8.82;5.00;;;;;;;;;;4827472;29;20146;-81
2021/12/08 08:36:20;;;;;;;13.18;5.13;;;;;;;;;;4811491;29;20050;-78
2021/12/08 08:38:50;;;;;;;8.18;4.53;;;;;;;;;;4826824;29;20050;-79
2021/12/08 08:41:19;;;;;;;8.20;4.78;;;;;;;;;;4834186;29;20120;-79
2021/12/08 08:43:45;;;;;;;8.52;4.47;;;;;;;;;;4827516;29;20383;-78
2021/12/08 08:46:24;;;;;;;7.93;4.43;;;;;;;;;;4811011;29;20114;-80
2021/12/08 08:48:52;;;;;;;7.63;4.40;;;;;;;;;;4814448;29;20483;-78
2021/12/08 08:51:21;;;;;;;6.88;4.43;;;;;;;;;;4815272;29;20053;-80
2021/12/08 08:53:49;;;;;;;10.70;4.63;;;;;;;;;;4829156;29;20064;-76
2021/12/08 08:56:17;;;;;;;7.82;3.97;;;;;;;;;;4829666;29;20050;-77
2021/12/08 08:58:45;;;;;;;9.52;4.43;;;;;;;;;;4825460;29;20371;-80
2021/12/08 09:01:14;;;;;;;8.18;3.90;;;;;;;;;;4824267;29;20489;-76
2021/12/08 09:03:43;;;;;;;7.72;3.90;;;;;;;;;;4829365;29;20046;-77
2021/12/08 09:06:11;;;;;;;9.38;3.83;;;;;;;;;;4828222;29;20069;-78
2021/12/08 09:08:38;;;;;;;7.38;3.70;;;;;;;;;;4824004;29;20149;-78
2021/12/08 09:11:12;;;;;;;8.82;3.80;;;;;;;;;;4825113;29;20065;-78
2021/12/08 09:13:51;;;;;;;7.07;3.55;;;;;;;;;;4825098;29;20034;-77
2021/12/08 09:16:23;;;;;;;8.15;3.28;;;;;;;;;;4827269;29;20046;-78
2021/12/08 09:18:59;;;;;;;7.43;3.33;;;;;;;;;;4814004;29;20045;-77
2021/12/08 09:21:31;;;;;;;7.80;3.40;;;;;;;;;;4837726;29;20377;-78
2021/12/08 09:24:16;;;;;;;8.88;3.50;;;;;;;;;;4844905;29;20072;-81
2021/12/08 09:26:44;;;;;;;9.63;3.45;;;;;;;;;;4828545;29;20045;-77
2021/12/08 09:29:13;;;;;;;8.43;3.70;;;;;;;;;;4843475;29;20053;-77
2021/12/08 09:31:42;;;;;;;8.25;3.60;;;;;;;;;;4829441;29;20084;-79
2021/12/08 09:34:30;;;;;;;9.02;4.45;;;;;;;;;;4828123;29;20041;-78
2021/12/08 09:37:02;;;;;;;10.15;3.78;;;;;;;;;;4828873;29;20054;-78
2021/12/08 09:39:28;;;;;;;8.90;3.50;;;;;;;;;;4828261;29;20054;-77
2021/12/08 09:42:07;;;;;;;8.27;4.05;;;;;;;;;;4828014;29;20503;-77
2021/12/08 09:44:35;;;;;;;8.18;3.20;;;;;;;;;;4829250;29;20115;-77
2021/12/08 09:47:02;;;;;;;10.50;3.50;;;;;;;;;;4814153;29;20061;-77
2021/12/08 09:49:28;;;;;;;9.85;3.80;;;;;;;;;;4828768;29;20045;-77
2021/12/08 09:51:58;;;;;;;7.82;3.65;;;;;;;;;;4828901;29;20119;-82
2021/12/08 09:54:24;;;;;;;10.63;3.65;;;;;;;;;;4809754;29;20047;-77
2021/12/08 09:56:52;;;;;;;9.23;3.58;;;;;;;;;;4839629;29;20077;-80
2021/12/08 09:59:19;;;;;;;8.73;3.60;;;;;;;;;;4843942;29;20045;-78
2021/12/08 10:01:49;;;;;;;8.93;3.35;;;;;;;;;;4828412;29;20140;-78
2021/12/08 10:04:15;;;;;;;6.35;3.50;;;;;;;;;;4829299;29;20477;-77
2021/12/08 10:06:44;;;;;;;10.38;4.07;;;;;;;;;;4827820;29;20086;-77
2021/12/08 10:09:10;;;;;;;10.75;4.28;;;;;;;;;;4828757;29;20405;-78
2021/12/08 10:11:36;;;;;;;10.55;3.92;;;;;;;;;;4812975;29;20049;-77
2021/12/08 10:14:04;;;;;;;8.98;4.10;;;;;;;;;;4812790;29;20061;-79
2021/12/08 10:16:32;;;;;;;9.98;4.00;;;;;;;;;;4828470;29;20496;-79
2021/12/08 10:18:58;;;;;;;7.78;3.60;;;;;;;;;;4827529;29;20053;-78
2021/12/08 10:21:35;;;;;;;6.85;3.70;;;;;;;;;;4828636;29;20050;-79
2021/12/08 10:24:01;;;;;;;8.93;3.97;;;;;;;;;;4828583;29;20085;-78
2021/12/08 10:26:32;;;;;;;10.27;4.25;;;;;;;;;;4827919;29;20053;-77
2021/12/08 10:29:01;;;;;;;9.60;3.80;;;;;;;;;;4822099;29;20092;-78
2021/12/08 10:31:30;;;;;;;10.07;4.22;;;;;;;;;;4809963;29;20386;-77
2021/12/08 10:34:02;;;;;;;8.85;3.80;;;;;;;;;;4826064;29;20042;-77
2021/12/08 10:39:10;;;;;;;10.55;4.95;;;;;;;;;;4817306;29;20064;-79
2021/12/08 10:41:43;;;;;;;13.23;4.10;;;;;;;;;;4828433;29;20121;-81
2021/12/08 10:44:10;;;;;;;6.38;3.63;;;;;;;;;;4816975;29;20084;-79
2021/12/08 10:46:38;;;;;;;8.25;4.05;;;;;;;;;;4812832;29;20042;-77
2021/12/08 10:49:13;;;;;;;5.13;3.35;;;;;;;;;;4827223;29;20049;-78
2021/12/08 10:54:32;;;;;;;9.68;3.72;;;;;;;;;;4827906;29;20186;-79
2021/12/08 10:57:00;;;;;;;11.90;4.60;;;;;;;;;;4843231;29;20042;-81
2021/12/08 10:59:27;;;;;;;8.15;3.88;;;;;;;;;;4824430;29;20054;-78
2021/12/08 11:01:59;;;;;;;8.32;3.45;;;;;;;;;;4807751;29;20463;-76
2021/12/08 11:04:32;;;;;;;10.75;4.38;;;;;;;;;;4827475;29;20049;-82
2021/12/08 11:07:08;;;;;;;10.20;3.58;;;;;;;;;;4822362;29;20122;-77
2021/12/08 11:09:42;;;;;;;9.23;3.92;;;;;;;;;;4826462;29;20062;-77
2021/12/08 11:12:08;;;;;;;7.20;3.70;;;;;;;;;;4827545;29;20104;-79
2021/12/08 11:14:47;;;;;;;8.27;4.10;;;;;;;;;;4827356;29;20045;-79
2021/12/08 11:17:27;;;;;;;8.52;3.72;;;;;;;;;;4827829;29;20057;-76
2021/12/08 11:20:13;;;;;;;9.10;3.85;;;;;;;;;;4832770;29;20123;-76
2021/12/08 11:22:40;;;;;;;7.10;3.30;;;;;;;;;;4811809;29;20061;-81
2021/12/08 11:25:07;;;;;;;8.18;4.10;;;;;;;;;;4811656;29;20401;-77
2021/12/08 11:27:34;;;;;;;6.60;3.72;;;;;;;;;;4817885;29;20050;-79
2021/12/08 11:30:11;;;;;;;6.13;3.38;;;;;;;;;;4851119;29;20065;-78
2021/12/08 11:32:37;;;;;;;8.55;3.60;;;;;;;;;;4825214;29;20112;-78
2021/12/08 11:35:03;;;;;;;7.03;4.07;;;;;;;;;;4825263;29;20069;-78
2021/12/08 11:37:34;;;;;;;10.27;3.70;;;;;;;;;;4808632;29;20070;-78
2021/12/08 11:40:02;;;;;;;8.05;4.07;;;;;;;;;;4824267;29;20082;-77
2021/12/08 11:42:32;;;;;;;9.30;3.80;;;;;;;;;;4808890;29;20061;-79
2021/12/08 11:44:59;;;;;;;9.05;3.97;;;;;;;;;;4842049;29;20037;-79
2021/12/08 11:47:28;;;;;;;10.38;4.00;;;;;;;;;;4812197;29;20057;-79
2021/12/08 11:49:56;;;;;;;8.55;4.57;;;;;;;;;;4811471;29;20534;-77
2021/12/08 11:52:24;;;;;;;8.70;4.10;;;;;;;;;;4812225;29;20483;-79
2021/12/08 11:54:56;;;;;;;10.18;4.38;;;;;;;;;;4826834;29;20034;-78
2021/12/08 11:57:27;;;;;;;7.30;4.03;;;;;;;;;;4822446;29;20053;-77
2021/12/08 11:59:57;;;;;;;9.23;4.05;;;;;;;;;;4834210;29;20057;-78
2021/12/08 12:02:27;;;;;;;9.45;4.22;;;;;;;;;;4815416;29;20119;-77
2021/12/08 12:04:53;;;;;;;7.40;3.60;;;;;;;;;;4839388;29;20053;-77
2021/12/08 12:07:19;;;;;;;10.32;4.10;;;;;;;;;;4793801;29;20386;-77
2021/12/08 12:09:46;;;;;;;6.88;3.70;;;;;;;;;;4819331;29;20113;-79
2021/12/08 12:12:13;;;;;;;10.13;4.25;;;;;;;;;;4843175;29;20049;-80
2021/12/08 12:14:39;;;;;;;7.85;4.45;;;;;;;;;;4809766;29;20045;-77
2021/12/08 12:17:05;;;;;;;6.93;4.00;;;;;;;;;;4823344;29;20467;-76
2021/12/08 12:19:33;;;;;;;6.88;3.80;;;;;;;;;;4833186;29;20037;-77
2021/12/08 12:22:18;;;;;;;8.65;4.10;;;;;;;;;;4827035;29;20114;-76
2021/12/08 12:24:53;;;;;;;11.23;4.47;;;;;;;;;;4826526;29;20114;-77
2021/12/08 12:27:25;;;;;;;6.88;4.07;;;;;;;;;;4823899;29;20054;-77
2021/12/08 12:29:56;;;;;;;9.00;4.22;;;;;;;;;;4824786;29;20050;-78
2021/12/08 12:32:33;;;;;;;7.80;4.07;;;;;;;;;;4826450;29;20049;-78
2021/12/08 12:35:29;;;;;;;7.70;4.10;;;;;;;;;;4826726;29;20322;-76
2021/12/08 12:38:01;;;;;;;7.03;5.00;;;;;;;;;;4815641;29;20057;-77
2021/12/08 12:40:32;;;;;;;7.07;4.22;;;;;;;;;;4827200;29;20394;-78
2021/12/08 12:42:59;;;;;;;7.18;3.80;;;;;;;;;;4830062;29;20049;-78
2021/12/08 12:45:26;;;;;;;9.13;4.25;;;;;;;;;;4827858;29;20378;-77
2021/12/08 12:48:07;;;;;;;8.45;4.40;;;;;;;;;;4817452;29;20086;-76
2021/12/08 12:50:50;;;;;;;6.15;4.25;;;;;;;;;;4827685;29;20050;-77
2021/12/08 12:53:30;;;;;;;8.15;4.05;;;;;;;;;;4827416;29;20056;-76
2021/12/08 12:55:56;;;;;;;6.05;4.07;;;;;;;;;;4829346;29;20061;-77
2021/12/08 12:58:22;;;;;;;9.00;4.50;;;;;;;;;;4829001;29;20054;-77
2021/12/08 13:00:51;;;;;;;7.57;3.97;;;;;;;;;;4846010;29;20057;-79
2021/12/08 13:03:50;;;;;;;6.53;4.22;;;;;;;;;;4845119;29;20448;-79
2021/12/08 13:06:17;;;;;;;7.25;4.38;;;;;;;;;;4799827;29;20064;-78
2021/12/08 13:08:46;;;;;;;9.55;4.50;;;;;;;;;;4813380;29;20053;-77
2021/12/08 13:11:41;;;;;;;7.53;3.92;;;;;;;;;;4829430;29;20182;-79
2021/12/08 13:14:18;;;;;;;8.68;3.95;;;;;;;;;;4829581;29;20045;-78
2021/12/08 13:16:44;;;;;;;5.38;4.10;;;;;;;;;;4829322;29;20121;-79
2021/12/08 13:19:10;;;;;;;7.43;3.90;;;;;;;;;;4829518;29;20050;-80
2021/12/08 13:21:44;;;;;;;6.28;3.95;;;;;;;;;;4829429;29;20041;-80
2021/12/08 13:24:32;;;;;;;6.68;4.10;;;;;;;;;;4828053;29;20053;-79
2021/12/08 13:27:04;;;;;;;6.82;3.80;;;;;;;;;;4827827;29;20432;-78
2021/12/08 13:29:33;;;;;;;7.22;3.75;;;;;;;;;;4828976;29;20382;-80
2021/12/08 13:32:09;;;;;;;5.97;3.60;;;;;;;;;;4829088;29;20160;-77
2021/12/08 13:34:35;;;;;;;;;;;;;;;;;;4828110;29;20050;-80
2021/12/08 13:37:20;;;;;;;6.80;3.63;;;;;;;;;;4829047;29;19982;-80
2021/12/08 13:39:48;;;;;;;6.32;3.75;;;;;;;;;;4844517;29;20049;-77
2021/12/08 13:42:14;;;;;;;7.82;3.97;;;;;;;;;;4845088;29;20491;-77
2021/12/08 13:44:50;;;;;;;5.05;3.50;;;;;;;;;;4821444;29;20115;-77
2021/12/08 13:47:28;;;;;;;8.45;3.53;;;;;;;;;;4844152;29;20185;-79
2021/12/08 13:49:57;;;;;;;5.43;3.30;;;;;;;;;;4845023;29;20053;-77
2021/12/08 13:52:31;;;;;;;8.75;3.33;;;;;;;;;;4828172;29;20046;-79
2021/12/08 13:54:59;;;;;;;5.45;3.35;;;;;;;;;;4805699;29;20050;-77
2021/12/08 13:57:45;;;;;;;7.47;3.30;;;;;;;;;;4826995;29;20046;-77
2021/12/08 14:00:11;;;;;;;;;;;;;;;;;;4829361;29;20050;-77
2021/12/08 14:02:37;;;;;;;8.07;3.30;;;;;;;;;;4807422;29;19921;-77
2021/12/08 14:05:12;;;;;;;6.53;3.30;;;;;;;;;;4844523;29;20046;-77
2021/12/08 14:07:39;;;;;;;9.73;3.72;;;;;;;;;;4827841;29;20062;-78
2021/12/08 14:10:10;;;;;;;7.10;3.30;;;;;;;;;;4828178;29;20103;-79
2021/12/08 14:12:48;;;;;;;8.05;3.60;;;;;;;;;;4840392;29;20054;-76
2021/12/08 14:15:34;;;;;;;8.30;3.72;;;;;;;;;;4827446;29;20054;-76
2021/12/08 14:18:16;;;;;;;8.15;3.65;;;;;;;;;;4812960;29;20475;-78
2021/12/08 14:20:43;;;;;;;7.40;3.20;;;;;;;;;;4827298;29;20054;-81
2021/12/08 14:23:09;;;;;;;7.72;3.15;;;;;;;;;;4824756;29;20150;-78
2021/12/08 14:25:40;;;;;;;7.32;3.60;;;;;;;;;;4832810;29;20041;-77
2021/12/08 14:28:42;;;;;;;7.70;3.30;;;;;;;;;;4828144;29;20395;-77
2021/12/08 14:31:17;;;;;;;7.60;3.30;;;;;;;;;;4802370;29;20495;-78
2021/12/08 14:33:56;;;;;;;4.03;2.75;;;;;;;;;;4822849;29;20487;-76
2021/12/08 14:36:38;;;;;;;6.15;2.85;;;;;;;;;;4828281;29;20356;-78
2021/12/08 14:39:07;;;;;;;6.03;2.97;;;;;;;;;;4828156;29;20111;-84
2021/12/08 14:41:35;;;;;;;8.15;3.47;;;;;;;;;;4813344;29;20045;-76
2021/12/08 14:44:02;;;;;;;7.25;3.90;;;;;;;;;;4843929;29;20042;-81
2021/12/08 14:46:30;;;;;;;8.70;3.90;;;;;;;;;;4827778;29;20508;-75
2021/12/08 14:49:01;;;;;;;6.72;4.03;;;;;;;;;;4843864;29;20486;-79
2021/12/08 14:51:29;;;;;;;9.23;5.07;;;;;;;;;;4811437;29;20498;-82
2021/12/08 14:54:08;;;;;;;9.45;4.55;;;;;;;;;;4824282;29;20131;-76
2021/12/08 14:56:35;;;;;;;9.57;4.30;;;;;;;;;;4809728;29;20047;-77
2021/12/08 14:59:01;;;;;;;8.57;4.38;;;;;;;;;;4812254;29;20364;-80
2021/12/08 15:01:28;;;;;;;6.30;4.55;;;;;;;;;;4824963;29;20046;-77
2021/12/08 15:03:54;;;;;;;9.68;4.65;;;;;;;;;;4826963;29;20386;-77
2021/12/08 15:06:22;;;;;;;8.00;4.95;;;;;;;;;;4807732;29;20085;-76
2021/12/08 15:08:50;;;;;;;10.48;5.20;;;;;;;;;;4827401;29;20329;-77
2021/12/08 15:11:24;;;;;;;10.20;5.20;;;;;;;;;;4827365;29;20094;-78
2021/12/08 15:13:51;;;;;;;7.43;4.65;;;;;;;;;;4827041;29;20046;-77
2021/12/08 15:16:20;;;;;;;11.30;5.15;;;;;;;;;;4830467;29;20479;-77
2021/12/08 15:18:47;;;;;;;9.98;4.75;;;;;;;;;;4827019;29;20045;-77
2021/12/08 15:21:24;;;;;;;9.10;4.95;;;;;;;;;;4811418;29;20094;-77
2021/12/08 15:24:01;;;;;;;9.20;4.63;;;;;;;;;;4825682;29;20054;-78
2021/12/08 15:26:27;;;;;;;7.68;5.00;;;;;;;;;;4806361;29;20046;-76
2021/12/08 15:28:53;;;;;;;9.20;5.38;;;;;;;;;;4826995;29;20080;-78
2021/12/08 15:31:27;;;;;;;6.72;4.30;;;;;;;;;;4808029;29;20057;-79
2021/12/08 15:33:53;;;;;;;8.30;4.40;;;;;;;;;;4825102;29;20054;-77
2021/12/08 15:36:24;;;;;;;10.70;4.88;;;;;;;;;;4826961;29;20431;-76
2021/12/08 15:38:52;;;;;;;11.65;4.90;;;;;;;;;;4825307;29;20056;-76
2021/12/08 15:41:22;;;;;;;11.93;4.97;;;;;;;;;;4827029;29;20057;-77
2021/12/08 15:43:49;;;;;;;7.57;4.72;;;;;;;;;;4813371;29;20057;-79
2021/12/08 15:46:16;;;;;;;8.55;4.30;;;;;;;;;;4829595;29;20117;-78
2021/12/08 15:48:44;;;;;;;11.95;4.38;;;;;;;;;;4825688;29;20104;-76
2021/12/08 15:51:10;;;;;;;10.30;4.88;;;;;;;;;;4813965;29;20089;-77
2021/12/08 15:53:39;;;;;;;10.38;4.45;;;;;;;;;;4811680;29;20093;-74
2021/12/08 15:56:07;;;;;;;7.75;4.63;;;;;;;;;;4827107;29;20059;-75
2021/12/08 15:58:42;;;;;;;9.38;4.57;;;;;;;;;;4841761;29;20046;-76
2021/12/08 16:01:10;;;;;;;7.78;4.80;;;;;;;;;;4825536;29;20091;-75
2021/12/08 16:03:41;;;;;;;9.57;4.60;;;;;;;;;;4821103;29;20052;-76
2021/12/08 16:06:15;;;;;;;7.90;4.50;;;;;;;;;;4825884;29;20050;-74
2021/12/08 16:08:42;;;;;;;9.18;4.40;;;;;;;;;;4825591;29;20126;-77
2021/12/08 16:11:09;;;;;;;8.65;4.38;;;;;;;;;;4841814;29;20046;-75
2021/12/08 16:13:35;;;;;;;8.02;4.75;;;;;;;;;;4845910;29;20081;-81
2021/12/08 16:16:04;;;;;;;10.23;4.63;;;;;;;;;;4828353;29;20054;-74
2021/12/08 16:18:30;;;;;;;9.20;5.28;;;;;;;;;;4830434;29;20133;-75
2021/12/08 16:20:58;;;;;;;13.05;6.18;;;;;;;;;;4830228;29;20057;-75